Wetumka, Oklahoma
Current Conditions -  °F | °C
As of 7:15 PM on Sunday 23 Nov 2014 (Local Time) from KOKM Reporting Station
Overcast Overcast  
Wind Chill: 51°   Ceiling: 2200
Heat Index: 51°   Visibility: 10mi
Dew Point: 43°   Wind: 18mph
Humidity: 75%   Direction: 310°NW
Pressure: 29.49"   Gusts: 30mph
Location:  35.24°N, 96.24°W
Report Text: KOKM 240115Z AUTO 31016G26KT 10SM OVC022 10/06 A2949 RMK AO2 T01030060
Loading
Personal Weather Stations






























Interactive Weather Map New forecast layout! Learn more

10-Day Weather Forecast

Advertisements
Track Severe Weather on mobile